createdAt,value
2018-12-09T00:02:01.048Z,6.78
2018-12-09T00:04:29.118Z,6.77
2018-12-09T00:06:57.189Z,6.74
2018-12-09T00:09:25.071Z,6.73
2018-12-09T00:11:53.131Z,6.67
2018-12-09T00:14:21.647Z,6.69
2018-12-09T00:16:50.090Z,6.67
2018-12-09T00:19:18.529Z,6.65
2018-12-09T00:21:46.619Z,6.61
2018-12-09T00:24:14.712Z,6.62
2018-12-09T00:26:43.813Z,6.62
2018-12-09T00:29:12.288Z,6.63
2018-12-09T00:31:40.359Z,6.56
2018-12-09T00:34:08.431Z,6.57
2018-12-09T00:36:36.263Z,6.65
2018-12-09T00:39:05.834Z,6.60
2018-12-09T00:41:33.721Z,6.66
2018-12-09T00:44:01.584Z,6.63
2018-12-09T00:46:29.606Z,6.64
2018-12-09T00:48:58.499Z,6.64
2018-12-09T00:51:26.363Z,6.67
2018-12-09T00:53:54.274Z,6.63
2018-12-09T00:56:22.264Z,6.66
2018-12-09T00:58:50.167Z,6.69
2018-12-09T01:01:18.036Z,6.62
2018-12-09T01:03:46.106Z,6.64
2018-12-09T01:06:13.955Z,6.63
2018-12-09T01:08:42.018Z,6.68
2018-12-09T01:11:10.115Z,6.71
2018-12-09T01:13:38.149Z,6.73
2018-12-09T01:16:06.052Z,6.72
2018-12-09T01:18:34.126Z,6.75
2018-12-09T01:21:01.972Z,6.83
2018-12-09T01:23:30.063Z,6.78
2018-12-09T01:25:58.133Z,6.78
2018-12-09T01:28:26.044Z,6.83
2018-12-09T01:30:54.276Z,6.83
2018-12-09T01:33:22.347Z,6.84
2018-12-09T01:35:50.190Z,6.84
2018-12-09T01:38:18.656Z,6.83
2018-12-09T01:40:52.145Z,6.84
2018-12-09T01:43:21.187Z,6.88
2018-12-09T01:45:49.261Z,6.84
2018-12-09T01:48:17.730Z,6.80
2018-12-09T01:50:45.605Z,6.79
2018-12-09T01:56:17.960Z,6.83
2018-12-09T01:58:46.450Z,6.86
2018-12-09T02:01:14.542Z,6.87
2018-12-09T02:03:42.533Z,6.88
2018-12-09T02:06:10.473Z,6.95
2018-12-09T02:08:38.413Z,6.96
2018-12-09T02:11:06.837Z,6.99
2018-12-09T02:13:34.770Z,6.97
2018-12-09T02:16:02.762Z,7.01
2018-12-09T02:18:30.825Z,7.03
2018-12-09T02:20:58.915Z,7.06
2018-12-09T02:23:26.986Z,7.09
2018-12-09T02:25:55.058Z,7.11
2018-12-09T02:28:22.963Z,7.15
2018-12-09T02:30:50.980Z,7.17
2018-12-09T02:33:19.073Z,7.24
2018-12-09T02:35:49.036Z,7.23
2018-12-09T02:38:17.052Z,7.26
2018-12-09T02:40:44.916Z,7.24
2018-12-09T02:43:13.401Z,7.24
2018-12-09T02:45:41.642Z,7.28
2018-12-09T02:48:09.540Z,7.36
2018-12-09T02:50:37.615Z,7.39
2018-12-09T02:53:05.520Z,7.45
2018-12-09T02:55:33.510Z,7.45
2018-12-09T02:58:01.623Z,7.39
2018-12-09T03:00:30.099Z,7.45
2018-12-09T03:02:57.971Z,7.41
2018-12-09T03:05:25.632Z,7.41
2018-12-09T03:07:53.705Z,7.41
2018-12-09T03:10:21.681Z,7.43
2018-12-09T03:12:49.645Z,7.41
2018-12-09T03:15:17.302Z,7.43
2018-12-09T03:17:45.652Z,7.45
2018-12-09T03:20:13.497Z,7.50
2018-12-09T03:22:41.483Z,7.54
2018-12-09T03:25:09.850Z,7.56
2018-12-09T03:27:38.479Z,7.56
2018-12-09T03:30:06.481Z,7.54
2018-12-09T03:32:34.830Z,7.54
2018-12-09T03:35:02.936Z,7.53
2018-12-09T03:37:30.927Z,7.55
2018-12-09T03:39:58.835Z,7.58
2018-12-09T03:42:26.907Z,7.52
2018-12-09T03:44:54.749Z,7.57
2018-12-09T03:47:22.640Z,7.57
2018-12-09T03:49:50.506Z,7.63
2018-12-09T03:52:18.579Z,7.54
2018-12-09T03:54:46.239Z,7.65
2018-12-09T03:57:14.517Z,7.61
2018-12-09T03:59:42.493Z,7.63
2018-12-09T04:02:10.359Z,7.62
2018-12-09T04:04:38.320Z,7.65
2018-12-09T04:07:06.066Z,7.62
2018-12-09T04:09:33.905Z,7.77
2018-12-09T04:12:01.715Z,7.82
2018-12-09T04:14:29.689Z,7.86
2018-12-09T04:16:57.860Z,7.87
2018-12-09T04:19:25.929Z,7.90
2018-12-09T04:21:53.833Z,7.97
2018-12-09T04:24:21.867Z,7.98
2018-12-09T04:26:49.718Z,8.00
2018-12-09T04:29:18.205Z,8.05
2018-12-09T04:31:46.287Z,8.11
2018-12-09T04:34:14.263Z,8.10
2018-12-09T04:36:42.127Z,8.10
2018-12-09T04:39:10.268Z,8.07
2018-12-09T04:41:38.660Z,8.10
2018-12-09T04:44:06.826Z,8.21
2018-12-09T04:46:34.519Z,8.17
2018-12-09T04:49:02.580Z,8.20
2018-12-09T04:51:34.522Z,8.17
2018-12-09T04:54:02.511Z,8.19
2018-12-09T04:56:30.452Z,8.18
2018-12-09T04:59:15.716Z,8.21
2018-12-09T05:01:44.673Z,8.26
2018-12-09T05:04:13.130Z,8.26
2018-12-09T05:06:41.195Z,8.30
2018-12-09T05:09:09.270Z,8.28
2018-12-09T05:11:37.944Z,8.30
2018-12-09T05:14:06.335Z,8.29
2018-12-09T05:16:34.206Z,8.26
2018-12-09T05:19:01.962Z,8.31
2018-12-09T05:21:29.933Z,8.29
2018-12-09T05:23:58.108Z,8.29
2018-12-09T05:26:26.139Z,8.35
2018-12-09T05:28:54.230Z,8.31
2018-12-09T05:31:22.321Z,8.27
2018-12-09T05:33:50.311Z,8.29
2018-12-09T05:36:18.100Z,8.20
2018-12-09T05:38:46.125Z,8.19
2018-12-09T05:41:13.788Z,8.08
2018-12-09T05:43:41.847Z,8.10
2018-12-09T05:46:09.913Z,8.20
2018-12-09T05:48:38.001Z,8.26
2018-12-09T05:51:05.720Z,8.31
2018-12-09T05:53:33.637Z,8.24
2018-12-09T05:56:01.601Z,8.36
2018-12-09T05:58:29.671Z,8.35
2018-12-09T06:00:57.507Z,8.37
2018-12-09T06:03:25.447Z,8.39
2018-12-09T06:05:53.439Z,8.33
2018-12-09T06:08:21.344Z,8.38
2018-12-09T06:10:49.414Z,8.45
2018-12-09T06:13:17.463Z,8.43
2018-12-09T06:15:45.557Z,8.34
2018-12-09T06:18:13.541Z,8.29
2018-12-09T06:20:41.354Z,8.17
2018-12-09T06:23:09.749Z,7.93
2018-12-09T06:25:37.814Z,7.98
2018-12-09T06:28:06.079Z,7.88
2018-12-09T06:30:34.189Z,7.88
2018-12-09T06:33:02.262Z,7.81
2018-12-09T06:35:30.702Z,7.81
2018-12-09T06:37:58.607Z,7.75
2018-12-09T06:40:26.658Z,7.79
2018-12-09T06:42:54.750Z,7.85
2018-12-09T06:45:22.715Z,7.86
2018-12-09T06:47:50.804Z,7.93
2018-12-09T06:50:19.346Z,7.89
2018-12-09T06:52:47.386Z,7.87
2018-12-09T06:55:15.277Z,7.85
2018-12-09T06:57:43.342Z,7.86
2018-12-09T07:00:11.455Z,7.78
2018-12-09T07:02:39.528Z,7.80
2018-12-09T07:05:07.862Z,7.69
2018-12-09T07:07:35.783Z,7.65
2018-12-09T07:10:04.562Z,7.57
2018-12-09T07:12:32.486Z,7.57
2018-12-09T07:15:00.497Z,7.54
2018-12-09T07:17:28.818Z,7.54
2018-12-09T07:19:56.844Z,7.51
2018-12-09T07:22:25.374Z,7.53
2018-12-09T07:24:53.195Z,7.56
2018-12-09T07:27:21.256Z,7.58
2018-12-09T07:29:49.521Z,7.53
2018-12-09T07:32:17.587Z,7.58
2018-12-09T07:34:45.683Z,7.57
2018-12-09T07:37:13.718Z,7.68
2018-12-09T07:39:41.824Z,7.67
2018-12-09T07:42:10.306Z,7.75
2018-12-09T07:44:38.379Z,7.74
2018-12-09T07:47:06.206Z,7.68
2018-12-09T07:49:34.317Z,7.63
2018-12-09T07:52:02.061Z,7.61
2018-12-09T07:54:29.843Z,7.68
2018-12-09T07:56:57.915Z,7.71
2018-12-09T07:59:26.395Z,7.79
2018-12-09T08:01:54.368Z,7.67
2018-12-09T08:04:22.314Z,7.75
2018-12-09T08:06:50.254Z,7.75
2018-12-09T08:09:18.073Z,7.66
2018-12-09T08:11:46.035Z,7.68
2018-12-09T08:14:14.004Z,7.74
2018-12-09T08:16:41.867Z,7.71
2018-12-09T08:19:09.909Z,7.71
2018-12-09T08:21:37.973Z,7.68
2018-12-09T08:24:06.064Z,7.71
2018-12-09T08:26:34.129Z,7.69
2018-12-09T08:29:02.195Z,7.79
2018-12-09T08:31:30.288Z,7.78
2018-12-09T08:33:58.781Z,7.61
2018-12-09T08:36:26.841Z,7.60
2018-12-09T08:38:54.880Z,7.55
2018-12-09T08:41:22.972Z,7.52
2018-12-09T08:43:51.039Z,7.56
2018-12-09T08:46:19.135Z,7.59
2018-12-09T08:48:46.844Z,7.55
2018-12-09T08:51:14.759Z,7.63
2018-12-09T08:53:42.575Z,7.63
2018-12-09T08:56:10.792Z,7.62
2018-12-09T08:58:38.857Z,7.69
2018-12-09T09:01:06.949Z,7.72
2018-12-09T09:03:34.818Z,7.64
2018-12-09T09:06:02.728Z,7.65
2018-12-09T09:08:30.648Z,7.76
2018-12-09T09:10:58.620Z,7.90
2018-12-09T09:13:26.349Z,7.82
2018-12-09T09:15:54.558Z,7.85
2018-12-09T09:18:23.448Z,7.83
2018-12-09T09:20:51.371Z,7.86
2018-12-09T09:23:19.288Z,7.82
2018-12-09T09:25:47.253Z,7.98
2018-12-09T09:28:15.324Z,7.77
2018-12-09T09:30:43.360Z,7.74
2018-12-09T09:33:11.449Z,7.83
2018-12-09T09:35:39.333Z,7.83
2018-12-09T09:38:07.814Z,7.74
2018-12-09T09:40:35.646Z,7.79
2018-12-09T09:43:03.711Z,7.84
2018-12-09T09:45:31.803Z,7.83
2018-12-09T09:47:59.841Z,7.90
2018-12-09T09:50:27.556Z,7.95
2018-12-09T09:52:55.629Z,7.86
2018-12-09T09:55:24.517Z,7.82
2018-12-09T09:57:52.589Z,7.85
2018-12-09T10:00:20.295Z,7.91
2018-12-09T10:02:48.160Z,8.02
2018-12-09T10:05:16.802Z,8.06
2018-12-09T10:07:44.817Z,8.11
2018-12-09T10:10:12.740Z,8.18
2018-12-09T10:12:40.448Z,8.04
2018-12-09T10:15:08.516Z,8.20
2018-12-09T10:17:36.503Z,8.25
2018-12-09T10:20:04.954Z,8.24
2018-12-09T10:22:33.304Z,8.31
2018-12-09T10:25:01.151Z,8.09
2018-12-09T10:27:29.239Z,8.29
2018-12-09T10:29:56.957Z,8.25
2018-12-09T10:32:24.972Z,8.46
2018-12-09T10:34:52.838Z,8.63
2018-12-09T10:37:20.878Z,8.46
2018-12-09T10:39:48.982Z,8.24
2018-12-09T10:42:16.685Z,8.17
2018-12-09T10:44:44.674Z,8.37
2018-12-09T10:47:12.786Z,8.50
2018-12-09T10:49:40.857Z,9.05
2018-12-09T10:52:08.921Z,9.06
2018-12-09T10:54:36.987Z,9.56
2018-12-09T10:57:04.928Z,9.20
2018-12-09T10:59:32.922Z,9.02
2018-12-09T11:02:07.083Z,8.64
2018-12-09T11:04:35.020Z,8.66
2018-12-09T11:07:03.092Z,8.51
2018-12-09T11:09:31.166Z,8.61
2018-12-09T11:11:59.072Z,8.48
2018-12-09T11:14:27.308Z,8.40
2018-12-09T11:16:55.152Z,8.36
2018-12-09T11:19:23.243Z,8.33
2018-12-09T11:21:51.109Z,8.32
2018-12-09T11:24:19.124Z,8.35
2018-12-09T11:26:47.048Z,8.32
2018-12-09T11:29:15.030Z,8.33
2018-12-09T11:31:42.821Z,8.43
2018-12-09T11:34:11.057Z,8.27
2018-12-09T11:36:39.129Z,8.46
2018-12-09T11:39:09.260Z,8.67
2018-12-09T11:41:37.319Z,8.70
2018-12-09T11:44:05.049Z,8.68
2018-12-09T11:46:33.257Z,8.64
2018-12-09T11:49:01.109Z,8.48
2018-12-09T11:51:29.196Z,8.55
2018-12-09T11:53:57.882Z,8.49
2018-12-09T11:56:25.747Z,8.54
2018-12-09T11:58:53.794Z,8.42
2018-12-09T12:01:21.891Z,8.50
2018-12-09T12:03:49.925Z,8.45
2018-12-09T12:06:18.615Z,8.46
2018-12-09T12:08:46.680Z,8.42
2018-12-09T12:11:14.645Z,8.49
2018-12-09T12:13:43.684Z,8.52
2018-12-09T12:16:11.651Z,8.44
2018-12-09T12:18:39.593Z,8.33
2018-12-09T12:21:07.692Z,8.36
2018-12-09T12:23:35.822Z,8.32
2018-12-09T12:26:04.193Z,8.23
2018-12-09T12:28:32.456Z,8.38
2018-12-09T12:31:00.180Z,8.41
2018-12-09T12:33:28.085Z,8.43
2018-12-09T12:35:55.951Z,8.36
2018-12-09T12:38:23.966Z,8.36
2018-12-09T12:40:51.848Z,8.25
2018-12-09T12:43:19.775Z,8.20
2018-12-09T12:45:47.789Z,8.18
2018-12-09T12:48:15.861Z,8.21
2018-12-09T12:50:43.894Z,8.34
2018-12-09T12:53:12.585Z,8.22
2018-12-09T12:55:40.484Z,8.25
2018-12-09T12:58:08.441Z,8.32
2018-12-09T13:00:36.607Z,8.36
2018-12-09T13:03:04.647Z,8.34
2018-12-09T13:05:32.565Z,8.31
2018-12-09T13:08:00.635Z,8.32
2018-12-09T13:10:28.544Z,8.24
2018-12-09T13:12:56.573Z,8.28
2018-12-09T13:15:24.500Z,8.32
2018-12-09T13:17:52.440Z,8.26
2018-12-09T13:20:20.993Z,8.17
2018-12-09T13:22:48.859Z,8.29
2018-12-09T13:25:16.931Z,8.09
2018-12-09T13:27:45.616Z,8.09
2018-12-09T13:30:13.686Z,8.00
2018-12-09T13:32:41.658Z,8.03
2018-12-09T13:35:09.624Z,7.13
2018-12-09T13:37:37.664Z,8.11
2018-12-09T13:40:05.889Z,8.04
2018-12-09T13:42:34.248Z,8.06
2018-12-09T13:45:01.937Z,8.10
2018-12-09T13:47:30.082Z,8.09
2018-12-09T13:49:58.053Z,7.96
2018-12-09T13:52:25.758Z,8.07
2018-12-09T13:54:53.823Z,8.03
2018-12-09T13:57:22.065Z,8.16
2018-12-09T13:59:50.105Z,8.09
2018-12-09T14:02:18.171Z,8.07
2018-12-09T14:04:46.484Z,8.13
2018-12-09T14:07:14.530Z,8.05
2018-12-09T14:09:42.567Z,8.03
2018-12-09T14:12:10.657Z,8.02
2018-12-09T14:14:38.555Z,8.06
2018-12-09T14:17:06.632Z,7.99
2018-12-09T14:19:34.681Z,7.96
2018-12-09T14:22:02.821Z,7.96
2018-12-09T14:24:31.010Z,7.98
2018-12-09T14:26:59.109Z,8.03
2018-12-09T14:29:27.192Z,7.96
2018-12-09T14:31:55.470Z,7.95
2018-12-09T14:34:23.137Z,7.93
2018-12-09T14:36:51.039Z,7.97
2018-12-09T14:39:18.928Z,7.96
2018-12-09T14:41:46.894Z,7.98
2018-12-09T14:44:15.512Z,7.86
2018-12-09T14:46:43.325Z,7.91
2018-12-09T14:49:11.353Z,7.85
2018-12-09T14:51:39.016Z,7.87
2018-12-09T14:54:07.087Z,7.79
2018-12-09T14:56:35.164Z,7.76
2018-12-09T14:59:02.904Z,7.83
2018-12-09T15:01:30.892Z,7.79
2018-12-09T15:03:58.888Z,7.82
2018-12-09T15:06:26.727Z,7.84
2018-12-09T15:08:54.593Z,7.84
2018-12-09T15:11:22.767Z,7.86
2018-12-09T15:13:50.722Z,7.86
2018-12-09T15:16:18.706Z,7.90
2018-12-09T15:18:46.571Z,7.84
2018-12-09T15:21:14.545Z,7.81
2018-12-09T15:23:43.235Z,7.82
2018-12-09T15:26:11.195Z,7.78
2018-12-09T15:28:39.115Z,7.73
2018-12-09T15:31:07.133Z,7.73
2018-12-09T15:33:34.995Z,7.81
2018-12-09T15:36:03.071Z,7.81
2018-12-09T15:38:31.128Z,7.78
2018-12-09T15:40:59.210Z,7.81
2018-12-09T15:43:27.786Z,7.79
2018-12-09T15:45:55.741Z,7.89
2018-12-09T15:48:24.218Z,7.79
2018-12-09T15:50:52.728Z,7.79
2018-12-09T15:53:20.749Z,7.82
2018-12-09T15:55:48.838Z,7.79
2018-12-09T15:58:16.942Z,7.79
2018-12-09T16:00:51.071Z,7.69
2018-12-09T16:03:19.209Z,7.64
2018-12-09T16:05:47.275Z,7.60
2018-12-09T16:08:15.371Z,7.69
2018-12-09T16:10:43.206Z,7.63
2018-12-09T16:13:11.272Z,7.63
2018-12-09T16:15:39.362Z,7.63
2018-12-09T16:18:07.427Z,7.63
2018-12-09T16:20:35.494Z,7.68
2018-12-09T16:23:03.592Z,7.66
2018-12-09T16:25:32.650Z,7.63
2018-12-09T16:28:00.760Z,7.74
2018-12-09T16:30:28.831Z,7.63
2018-12-09T16:32:56.850Z,7.70
2018-12-09T16:35:24.737Z,7.68
2018-12-09T16:37:53.428Z,7.64
2018-12-09T16:40:21.732Z,7.63
2018-12-09T16:42:49.802Z,7.58
2018-12-09T16:45:17.736Z,7.61
2018-12-09T16:47:45.641Z,7.60
2018-12-09T16:50:14.221Z,7.60
2018-12-09T16:52:42.196Z,7.57
2018-12-09T16:55:10.159Z,7.59
2018-12-09T16:57:38.231Z,7.61
2018-12-09T17:00:06.598Z,7.59
2018-12-09T17:02:34.470Z,7.64
2018-12-09T17:05:02.570Z,7.61
2018-12-09T17:07:30.617Z,7.61
2018-12-09T17:09:58.531Z,7.55
2018-12-09T17:12:26.523Z,7.62
2018-12-09T17:14:54.832Z,7.59
2018-12-09T17:17:22.879Z,7.60
2018-12-09T17:19:50.944Z,7.57
2018-12-09T17:22:19.561Z,7.61
2018-12-09T17:24:47.425Z,7.45
2018-12-09T17:27:15.495Z,7.44
2018-12-09T17:29:43.407Z,7.43
2018-12-09T17:32:11.825Z,7.35
2018-12-09T17:34:40.087Z,7.30
2018-12-09T17:37:09.213Z,7.40
2018-12-09T17:39:40.374Z,7.37
2018-12-09T17:42:08.811Z,7.31
2018-12-09T17:44:36.910Z,7.28
2018-12-09T17:47:04.941Z,7.22
2018-12-09T17:49:32.848Z,7.24
2018-12-09T17:52:00.715Z,7.22
2018-12-09T17:54:28.563Z,7.19
2018-12-09T17:56:57.154Z,7.21
2018-12-09T17:59:26.567Z,7.20
2018-12-09T18:01:54.487Z,7.22
2018-12-09T18:04:23.119Z,7.21
2018-12-09T18:06:51.117Z,7.23
2018-12-09T18:09:19.213Z,7.28
2018-12-09T18:11:47.298Z,7.29
2018-12-09T18:14:15.404Z,7.30
2018-12-09T18:16:43.229Z,7.26
2018-12-09T18:19:11.342Z,7.32
2018-12-09T18:21:39.386Z,7.32
2018-12-09T18:24:07.629Z,7.29
2018-12-09T18:26:35.556Z,7.28
2018-12-09T18:29:03.423Z,7.30
2018-12-09T18:31:31.148Z,7.29
2018-12-09T18:33:59.339Z,7.28
2018-12-09T18:36:27.434Z,7.31
2018-12-09T18:38:55.371Z,7.19
2018-12-09T18:41:23.336Z,7.33
2018-12-09T18:43:51.401Z,7.37
2018-12-09T18:46:19.513Z,7.25
2018-12-09T18:48:47.379Z,7.23
2018-12-09T18:51:15.354Z,7.26
2018-12-09T18:53:43.164Z,7.32
2018-12-09T18:56:11.754Z,7.29
2018-12-09T18:58:40.279Z,7.37
2018-12-09T19:01:08.153Z,7.33
2018-12-09T19:03:36.111Z,7.34
2018-12-09T19:06:04.017Z,7.29
2018-12-09T19:08:32.571Z,7.36
2018-12-09T19:11:00.499Z,7.30
2018-12-09T19:13:28.606Z,7.35
2018-12-09T19:15:56.309Z,7.41
2018-12-09T19:18:25.047Z,7.40
2018-12-09T19:20:52.940Z,7.37
2018-12-09T19:23:21.077Z,7.46
2018-12-09T19:25:49.646Z,7.35
2018-12-09T19:28:17.484Z,7.31
2018-12-09T19:30:48.304Z,7.38
2018-12-09T19:33:15.837Z,7.36
2018-12-09T19:35:43.911Z,7.32
2018-12-09T19:38:11.948Z,7.27
2018-12-09T19:40:40.372Z,7.32
2018-12-09T19:43:09.969Z,7.33
2018-12-09T19:45:37.894Z,7.35
2018-12-09T19:48:05.904Z,7.27
2018-12-09T19:50:33.950Z,7.34
2018-12-09T19:53:03.559Z,7.38
2018-12-09T19:55:31.409Z,7.41
2018-12-09T19:57:59.397Z,7.39
2018-12-09T20:00:27.367Z,7.29
2018-12-09T20:02:56.380Z,7.33
2018-12-09T20:05:24.495Z,7.29
2018-12-09T20:07:52.359Z,7.28
2018-12-09T20:10:20.317Z,7.24
2018-12-09T20:12:48.443Z,7.24
2018-12-09T20:15:16.534Z,7.18
2018-12-09T20:17:45.198Z,7.21
2018-12-09T20:20:13.264Z,7.21
2018-12-09T20:22:41.360Z,7.22
2018-12-09T20:25:09.269Z,7.22
2018-12-09T20:27:37.136Z,7.20
2018-12-09T20:30:07.623Z,7.18
2018-12-09T20:32:35.565Z,7.20
2018-12-09T20:35:03.731Z,7.22
2018-12-09T20:37:31.836Z,7.26
2018-12-09T20:39:59.689Z,7.22
2018-12-09T20:42:27.775Z,7.29
2018-12-09T20:44:55.639Z,7.30
2018-12-09T20:47:23.685Z,7.24
2018-12-09T20:49:52.547Z,7.27
2018-12-09T20:52:20.516Z,7.21
2018-12-09T20:54:49.132Z,7.20
2018-12-09T20:57:17.230Z,7.27
2018-12-09T20:59:45.301Z,7.17
2018-12-09T21:02:13.573Z,7.17
2018-12-09T21:04:41.570Z,7.16
2018-12-09T21:07:09.685Z,7.15
2018-12-09T21:09:37.788Z,7.21
2018-12-09T21:12:05.717Z,7.17
2018-12-09T21:14:33.689Z,7.11
2018-12-09T21:17:01.773Z,7.18
2018-12-09T21:19:30.228Z,7.10
2018-12-09T21:21:58.349Z,7.07
2018-12-09T21:24:26.421Z,7.02
2018-12-09T21:26:54.390Z,7.07
2018-12-09T21:29:22.451Z,7.01
2018-12-09T21:31:50.267Z,6.96
2018-12-09T21:34:18.133Z,7.00
2018-12-09T21:36:46.024Z,6.98
2018-12-09T21:39:14.016Z,7.05
2018-12-09T21:41:42.080Z,7.04
2018-12-09T21:44:10.172Z,6.88
2018-12-09T21:46:37.887Z,6.95
2018-12-09T21:49:05.905Z,6.91
2018-12-09T21:51:33.618Z,6.79
2018-12-09T21:54:02.810Z,6.82
2018-12-09T21:56:30.528Z,6.84
2018-12-09T21:58:58.565Z,6.85
2018-12-09T22:01:26.634Z,6.81
2018-12-09T22:03:54.721Z,6.88
2018-12-09T22:06:22.788Z,6.84
2018-12-09T22:08:50.853Z,6.87
2018-12-09T22:11:18.956Z,6.83
2018-12-09T22:13:47.134Z,6.79
2018-12-09T22:16:15.025Z,6.83
2018-12-09T22:21:38.868Z,6.81
2018-12-09T22:24:06.837Z,6.72
2018-12-09T22:26:34.663Z,6.76
2018-12-09T22:32:06.273Z,6.81
2018-12-09T22:34:34.837Z,6.78
2018-12-09T22:37:02.849Z,6.78
2018-12-09T22:39:30.933Z,6.73
2018-12-09T22:41:58.801Z,6.74
2018-12-09T22:44:26.871Z,6.69
2018-12-09T22:46:55.537Z,6.59
2018-12-09T22:49:23.659Z,6.63
2018-12-09T22:51:51.494Z,6.65
2018-12-09T22:54:19.541Z,6.65
2018-12-09T22:56:47.151Z,6.67
2018-12-09T22:59:14.872Z,6.65
2018-12-09T23:01:55.291Z,6.67
2018-12-09T23:04:23.903Z,6.58
2018-12-09T23:06:53.519Z,6.62
2018-12-09T23:09:21.299Z,6.53
2018-12-09T23:11:49.369Z,6.60
2018-12-09T23:14:17.023Z,6.51
2018-12-09T23:16:44.809Z,6.34
2018-12-09T23:19:12.423Z,6.44
2018-12-09T23:21:40.056Z,6.42
2018-12-09T23:24:07.748Z,6.46
2018-12-09T23:26:35.439Z,6.37
2018-12-09T23:29:03.263Z,6.37
2018-12-09T23:31:30.985Z,6.35
2018-12-09T23:33:58.687Z,6.38
2018-12-09T23:36:26.492Z,6.39
2018-12-09T23:38:54.311Z,6.33
2018-12-09T23:41:22.234Z,6.33
2018-12-09T23:43:50.056Z,6.32
2018-12-09T23:46:17.782Z,6.27
2018-12-09T23:48:46.385Z,6.18
2018-12-09T23:51:14.071Z,6.29
2018-12-09T23:53:42.032Z,6.31
2018-12-09T23:56:09.830Z,6.35
2018-12-09T23:58:37.805Z,6.38
